Accueil
METAR-TAF:

METAR-TAF

Aéroports :

Zielona Góra, Pologne

latitude: 52-08-19N, longitude: 015-47-55E, altitude: 59 m

Observation

Le bulletin a été fait il y a 22 minutes, à 04:30 UTC
Vent 2 kt de direction variable
Température 14°C
Humidité 100%
Pression 1013 hPa
Visibilité 10 km ou plus
pas de nuages en-dessous de 1500 mètres et pas de cumulonimbus.

METAR: EPZG 170430Z VRB02KT CAVOK 14/14 Q1013

Heure: 06:52 (04:52 UTC)

Prévision

Le bulletin a été fait il y a 1 heure et 51 minutes, à 03:01 UTC
Prévision valable du 17 à 03 UTC au 17 à 12 UTC
Vent 2 kt de direction variable
Visibilité 10 km ou plus
pas de nuages en-dessous de 1500 mètres et pas de cumulonimbus.
Temporairement
du 17 à 03 UTC au 17 à 12 UTC
Nuages fragmentés à une hauteur de 4000 ft, Cumulus congestus.

TAF: EPZG 170301Z 1703/1712 VRB02KT CAVOK TEMPO 1703/1712 BKN040TCU

Observations et prévisions météorologiques de plus de 4000 aéroports (messages METAR et TAF).

Les stations disponibles sont représentées par des disques jaunes et rouges sur la carte.

Passer la souris dessus pour voir le nom de la station.

Cliquer dessus pour voir les observations et prévisions météorologiques.

Pour changer de carte: cliquez sur les boutons verts avec une croix noire pour zoomer, sur le bouton vert avec un tiret pour effectuer un zoom arrière, ou sur les flèches vertes pour les cartes adjacentes.


METAR-TAF: